sensor_id;sensor_type;location;lat;lon;timestamp;temperature;humidity
3709;DHT22;1870;53.996;10.784;2023-05-16T00:00:06;11.10;99.90
3709;DHT22;1870;53.996;10.784;2023-05-16T00:02:34;11.20;99.90
3709;DHT22;1870;53.996;10.784;2023-05-16T00:05:02;11.10;99.90
3709;DHT22;1870;53.996;10.784;2023-05-16T00:07:29;11.10;99.90
3709;DHT22;1870;53.996;10.784;2023-05-16T00:09:55;11.00;99.90
3709;DHT22;1870;53.996;10.784;2023-05-16T00:12:21;11.10;99.90
3709;DHT22;1870;53.996;10.784;2023-05-16T00:14:47;11.10;99.90
3709;DHT22;1870;53.996;10.784;2023-05-16T00:17:14;11.00;99.90
3709;DHT22;1870;53.996;10.784;2023-05-16T00:19:41;11.10;99.90
3709;DHT22;1870;53.996;10.784;2023-05-16T00:22:09;11.10;99.90
3709;DHT22;1870;53.996;10.784;2023-05-16T00:24:36;11.10;99.90
3709;DHT22;1870;53.996;10.784;2023-05-16T00:27:01;11.30;99.90
3709;DHT22;1870;53.996;10.784;2023-05-16T00:29:29;11.10;99.90
3709;DHT22;1870;53.996;10.784;2023-05-16T00:31:55;11.20;99.90
3709;DHT22;1870;53.996;10.784;2023-05-16T00:34:21;11.20;99.90
3709;DHT22;1870;53.996;10.784;2023-05-16T00:36:48;11.00;99.90
3709;DHT22;1870;53.996;10.784;2023-05-16T00:39:14;11.10;99.90
3709;DHT22;1870;53.996;10.784;2023-05-16T00:41:40;11.10;99.90
3709;DHT22;1870;53.996;10.784;2023-05-16T00:44:06;11.20;99.90
3709;DHT22;1870;53.996;10.784;2023-05-16T00:46:32;11.20;99.90
3709;DHT22;1870;53.996;10.784;2023-05-16T00:48:58;11.20;99.90
3709;DHT22;1870;53.996;10.784;2023-05-16T00:51:24;11.40;99.90
3709;DHT22;1870;53.996;10.784;2023-05-16T00:53:50;11.40;99.90
3709;DHT22;1870;53.996;10.784;2023-05-16T00:56:16;11.50;99.90
3709;DHT22;1870;53.996;10.784;2023-05-16T00:58:42;11.50;99.90
3709;DHT22;1870;53.996;10.784;2023-05-16T01:01:08;11.50;99.90
3709;DHT22;1870;53.996;10.784;2023-05-16T01:03:34;11.50;99.90
3709;DHT22;1870;53.996;10.784;2023-05-16T01:06:01;11.50;99.90
3709;DHT22;1870;53.996;10.784;2023-05-16T01:08:27;11.50;99.90
3709;DHT22;1870;53.996;10.784;2023-05-16T01:11:21;11.50;99.90
3709;DHT22;1870;53.996;10.784;2023-05-16T01:14:24;11.50;99.90
3709;DHT22;1870;53.996;10.784;2023-05-16T01:27:29;11.30;99.90
3709;DHT22;1870;53.996;10.784;2023-05-16T01:29:56;11.40;99.90
3709;DHT22;1870;53.996;10.784;2023-05-16T01:32:22;11.30;99.90
3709;DHT22;1870;53.996;10.784;2023-05-16T01:34:49;11.30;99.90
3709;DHT22;1870;53.996;10.784;2023-05-16T01:37:25;11.30;99.90
3709;DHT22;1870;53.996;10.784;2023-05-16T01:40:08;11.40;99.90
3709;DHT22;1870;53.996;10.784;2023-05-16T01:42:41;11.40;99.90
3709;DHT22;1870;53.996;10.784;2023-05-16T01:45:19;11.20;99.90
3709;DHT22;1870;53.996;10.784;2023-05-16T01:47:51;11.30;99.90
3709;DHT22;1870;53.996;10.784;2023-05-16T01:50:20;11.30;99.90
3709;DHT22;1870;53.996;10.784;2023-05-16T01:52:55;11.30;99.90
3709;DHT22;1870;53.996;10.784;2023-05-16T01:57:52;11.30;99.90
3709;DHT22;1870;53.996;10.784;2023-05-16T02:00:19;11.40;99.90
3709;DHT22;1870;53.996;10.784;2023-05-16T02:02:45;11.30;99.90
3709;DHT22;1870;53.996;10.784;2023-05-16T02:05:11;11.40;99.90
3709;DHT22;1870;53.996;10.784;2023-05-16T02:07:37;11.40;99.90
3709;DHT22;1870;53.996;10.784;2023-05-16T02:10:03;11.40;99.90
3709;DHT22;1870;53.996;10.784;2023-05-16T02:12:30;11.40;99.90
3709;DHT22;1870;53.996;10.784;2023-05-16T02:14:56;11.30;99.90
3709;DHT22;1870;53.996;10.784;2023-05-16T02:17:21;11.40;99.90
3709;DHT22;1870;53.996;10.784;2023-05-16T02:19:47;11.40;99.90
3709;DHT22;1870;53.996;10.784;2023-05-16T02:22:13;11.40;99.90
3709;DHT22;1870;53.996;10.784;2023-05-16T02:24:41;11.30;99.90
3709;DHT22;1870;53.996;10.784;2023-05-16T02:27:06;11.50;99.90
3709;DHT22;1870;53.996;10.784;2023-05-16T02:29:32;11.50;99.90
3709;DHT22;1870;53.996;10.784;2023-05-16T02:31:58;11.50;99.90
3709;DHT22;1870;53.996;10.784;2023-05-16T02:34:24;11.50;99.90
3709;DHT22;1870;53.996;10.784;2023-05-16T02:36:49;11.50;99.90
3709;DHT22;1870;53.996;10.784;2023-05-16T02:39:15;11.70;99.90
3709;DHT22;1870;53.996;10.784;2023-05-16T02:41:43;11.70;99.90
3709;DHT22;1870;53.996;10.784;2023-05-16T02:44:09;11.70;99.90
3709;DHT22;1870;53.996;10.784;2023-05-16T02:46:36;11.70;99.90
3709;DHT22;1870;53.996;10.784;2023-05-16T02:49:02;11.60;99.90
3709;DHT22;1870;53.996;10.784;2023-05-16T02:51:28;11.70;99.90
3709;DHT22;1870;53.996;10.784;2023-05-16T02:53:54;11.50;99.90
3709;DHT22;1870;53.996;10.784;2023-05-16T02:56:21;11.50;99.90
3709;DHT22;1870;53.996;10.784;2023-05-16T02:58:48;11.50;99.90
3709;DHT22;1870;53.996;10.784;2023-05-16T03:01:14;11.50;99.90
3709;DHT22;1870;53.996;10.784;2023-05-16T03:03:41;11.40;99.90
3709;DHT22;1870;53.996;10.784;2023-05-16T03:06:06;11.30;99.90
3709;DHT22;1870;53.996;10.784;2023-05-16T03:08:32;11.30;99.90
3709;DHT22;1870;53.996;10.784;2023-05-16T03:10:58;11.30;99.90
3709;DHT22;1870;53.996;10.784;2023-05-16T03:13:24;11.30;99.90
3709;DHT22;1870;53.996;10.784;2023-05-16T03:15:50;11.30;99.90
3709;DHT22;1870;53.996;10.784;2023-05-16T03:18:16;11.30;99.90
3709;DHT22;1870;53.996;10.784;2023-05-16T03:20:41;11.20;99.90
3709;DHT22;1870;53.996;10.784;2023-05-16T03:23:07;11.30;99.90
3709;DHT22;1870;53.996;10.784;2023-05-16T03:25:34;11.30;99.90
3709;DHT22;1870;53.996;10.784;2023-05-16T03:28:01;11.20;99.90
3709;DHT22;1870;53.996;10.784;2023-05-16T03:30:27;11.20;99.90
3709;DHT22;1870;53.996;10.784;2023-05-16T03:32:52;11.10;99.90
3709;DHT22;1870;53.996;10.784;2023-05-16T03:35:18;11.00;99.90
3709;DHT22;1870;53.996;10.784;2023-05-16T03:37:44;11.20;99.90
3709;DHT22;1870;53.996;10.784;2023-05-16T03:40:10;11.10;99.90
3709;DHT22;1870;53.996;10.784;2023-05-16T03:42:35;11.20;99.90
3709;DHT22;1870;53.996;10.784;2023-05-16T03:45:03;11.20;99.90
3709;DHT22;1870;53.996;10.784;2023-05-16T03:47:32;11.30;99.90
3709;DHT22;1870;53.996;10.784;2023-05-16T03:49:58;11.30;99.90
3709;DHT22;1870;53.996;10.784;2023-05-16T03:52:23;11.50;99.90
3709;DHT22;1870;53.996;10.784;2023-05-16T03:54:49;11.60;99.90
3709;DHT22;1870;53.996;10.784;2023-05-16T03:57:15;11.50;99.90
3709;DHT22;1870;53.996;10.784;2023-05-16T03:59:40;11.60;99.90
3709;DHT22;1870;53.996;10.784;2023-05-16T04:02:07;11.70;99.90
3709;DHT22;1870;53.996;10.784;2023-05-16T04:04:32;11.90;99.90
3709;DHT22;1870;53.996;10.784;2023-05-16T04:06:59;11.90;99.90
3709;DHT22;1870;53.996;10.784;2023-05-16T04:09:24;11.90;99.90
3709;DHT22;1870;53.996;10.784;2023-05-16T04:11:50;12.00;99.90
3709;DHT22;1870;53.996;10.784;2023-05-16T04:14:17;12.00;99.90
3709;DHT22;1870;53.996;10.784;2023-05-16T04:16:43;11.90;99.90
3709;DHT22;1870;53.996;10.784;2023-05-16T04:19:08;11.80;99.90
3709;DHT22;1870;53.996;10.784;2023-05-16T04:21:36;11.80;99.90
3709;DHT22;1870;53.996;10.784;2023-05-16T04:24:02;11.70;99.90
3709;DHT22;1870;53.996;10.784;2023-05-16T04:26:29;11.70;99.90
3709;DHT22;1870;53.996;10.784;2023-05-16T04:28:56;11.60;99.90
3709;DHT22;1870;53.996;10.784;2023-05-16T04:31:23;11.80;99.90
3709;DHT22;1870;53.996;10.784;2023-05-16T04:33:49;11.80;99.90
3709;DHT22;1870;53.996;10.784;2023-05-16T04:36:15;11.60;99.90
3709;DHT22;1870;53.996;10.784;2023-05-16T04:38:41;11.60;99.90
3709;DHT22;1870;53.996;10.784;2023-05-16T04:41:07;11.40;99.90
3709;DHT22;1870;53.996;10.784;2023-05-16T04:43:32;11.50;99.90
3709;DHT22;1870;53.996;10.784;2023-05-16T04:45:58;11.50;99.90
3709;DHT22;1870;53.996;10.784;2023-05-16T04:48:24;11.50;99.90
3709;DHT22;1870;53.996;10.784;2023-05-16T04:50:50;11.50;99.90
3709;DHT22;1870;53.996;10.784;2023-05-16T04:53:16;11.50;99.90
3709;DHT22;1870;53.996;10.784;2023-05-16T04:55:42;11.70;99.90
3709;DHT22;1870;53.996;10.784;2023-05-16T04:58:08;11.70;99.90
3709;DHT22;1870;53.996;10.784;2023-05-16T05:00:33;11.60;99.90
3709;DHT22;1870;53.996;10.784;2023-05-16T05:02:59;11.80;99.90
3709;DHT22;1870;53.996;10.784;2023-05-16T05:05:25;11.70;99.90
3709;DHT22;1870;53.996;10.784;2023-05-16T05:07:50;11.80;99.90
3709;DHT22;1870;53.996;10.784;2023-05-16T05:10:16;11.90;99.90
3709;DHT22;1870;53.996;10.784;2023-05-16T05:12:42;11.70;99.90
3709;DHT22;1870;53.996;10.784;2023-05-16T05:15:08;11.70;99.90
3709;DHT22;1870;53.996;10.784;2023-05-16T05:17:34;11.70;99.90
3709;DHT22;1870;53.996;10.784;2023-05-16T05:19:59;11.70;99.90
3709;DHT22;1870;53.996;10.784;2023-05-16T05:22:25;11.70;99.90
3709;DHT22;1870;53.996;10.784;2023-05-16T05:24:51;11.70;99.90
3709;DHT22;1870;53.996;10.784;2023-05-16T05:27:16;11.70;99.90
3709;DHT22;1870;53.996;10.784;2023-05-16T05:29:42;11.80;99.90
3709;DHT22;1870;53.996;10.784;2023-05-16T05:32:07;11.90;99.90
3709;DHT22;1870;53.996;10.784;2023-05-16T05:34:33;12.10;99.90
3709;DHT22;1870;53.996;10.784;2023-05-16T05:36:59;12.10;99.90
3709;DHT22;1870;53.996;10.784;2023-05-16T05:39:25;12.10;99.90
3709;DHT22;1870;53.996;10.784;2023-05-16T05:41:51;12.10;99.90
3709;DHT22;1870;53.996;10.784;2023-05-16T05:44:16;12.10;99.90
3709;DHT22;1870;53.996;10.784;2023-05-16T05:46:42;12.10;99.90
3709;DHT22;1870;53.996;10.784;2023-05-16T05:49:08;12.10;99.90
3709;DHT22;1870;53.996;10.784;2023-05-16T05:51:34;12.20;99.90
3709;DHT22;1870;53.996;10.784;2023-05-16T05:54:00;12.20;99.90
3709;DHT22;1870;53.996;10.784;2023-05-16T05:56:26;12.40;99.90
3709;DHT22;1870;53.996;10.784;2023-05-16T05:58:52;12.30;99.90
3709;DHT22;1870;53.996;10.784;2023-05-16T06:01:17;12.00;99.90
3709;DHT22;1870;53.996;10.784;2023-05-16T06:03:45;12.00;99.90
3709;DHT22;1870;53.996;10.784;2023-05-16T06:06:11;11.90;99.90
3709;DHT22;1870;53.996;10.784;2023-05-16T06:08:39;11.90;99.90
3709;DHT22;1870;53.996;10.784;2023-05-16T06:11:05;12.00;99.90
3709;DHT22;1870;53.996;10.784;2023-05-16T06:13:30;12.10;99.90
3709;DHT22;1870;53.996;10.784;2023-05-16T06:15:56;12.30;99.90
3709;DHT22;1870;53.996;10.784;2023-05-16T06:18:21;12.20;99.90
3709;DHT22;1870;53.996;10.784;2023-05-16T06:20:47;12.30;99.90
3709;DHT22;1870;53.996;10.784;2023-05-16T06:23:13;12.30;99.90
3709;DHT22;1870;53.996;10.784;2023-05-16T06:25:39;12.40;99.90
3709;DHT22;1870;53.996;10.784;2023-05-16T06:28:04;12.50;99.90
3709;DHT22;1870;53.996;10.784;2023-05-16T06:30:30;12.50;99.90
3709;DHT22;1870;53.996;10.784;2023-05-16T06:32:56;12.50;99.90
3709;DHT22;1870;53.996;10.784;2023-05-16T06:35:22;12.60;99.90
3709;DHT22;1870;53.996;10.784;2023-05-16T06:37:48;12.50;99.90
3709;DHT22;1870;53.996;10.784;2023-05-16T06:40:14;12.60;99.90
3709;DHT22;1870;53.996;10.784;2023-05-16T06:42:40;12.70;99.90
3709;DHT22;1870;53.996;10.784;2023-05-16T06:45:06;12.80;99.90
3709;DHT22;1870;53.996;10.784;2023-05-16T06:47:32;12.90;99.90
3709;DHT22;1870;53.996;10.784;2023-05-16T06:49:58;12.60;99.90
3709;DHT22;1870;53.996;10.784;2023-05-16T06:52:24;12.50;99.90
3709;DHT22;1870;53.996;10.784;2023-05-16T06:54:50;12.20;99.90
3709;DHT22;1870;53.996;10.784;2023-05-16T06:57:16;12.10;99.90
3709;DHT22;1870;53.996;10.784;2023-05-16T06:59:42;12.00;99.90
3709;DHT22;1870;53.996;10.784;2023-05-16T07:02:07;12.00;99.90
3709;DHT22;1870;53.996;10.784;2023-05-16T07:04:33;12.10;99.90
3709;DHT22;1870;53.996;10.784;2023-05-16T07:07:02;12.30;99.90
3709;DHT22;1870;53.996;10.784;2023-05-16T07:09:28;12.50;99.90
3709;DHT22;1870;53.996;10.784;2023-05-16T07:11:57;12.60;99.90
3709;DHT22;1870;53.996;10.784;2023-05-16T07:14:23;12.60;99.90
3709;DHT22;1870;53.996;10.784;2023-05-16T07:16:48;12.70;99.90
3709;DHT22;1870;53.996;10.784;2023-05-16T07:19:14;12.70;99.90
3709;DHT22;1870;53.996;10.784;2023-05-16T07:21:39;12.80;99.90
3709;DHT22;1870;53.996;10.784;2023-05-16T07:24:06;13.00;99.90
3709;DHT22;1870;53.996;10.784;2023-05-16T07:26:31;12.90;99.90
3709;DHT22;1870;53.996;10.784;2023-05-16T07:28:58;13.00;99.90
3709;DHT22;1870;53.996;10.784;2023-05-16T07:31:23;13.20;99.90
3709;DHT22;1870;53.996;10.784;2023-05-16T07:33:49;13.30;99.90
3709;DHT22;1870;53.996;10.784;2023-05-16T07:36:15;13.50;99.90
3709;DHT22;1870;53.996;10.784;2023-05-16T07:38:41;13.60;99.90
3709;DHT22;1870;53.996;10.784;2023-05-16T07:41:07;13.50;99.90
3709;DHT22;1870;53.996;10.784;2023-05-16T07:43:33;13.50;99.90
3709;DHT22;1870;53.996;10.784;2023-05-16T07:46:01;13.40;99.90
3709;DHT22;1870;53.996;10.784;2023-05-16T07:48:27;13.40;99.90
3709;DHT22;1870;53.996;10.784;2023-05-16T07:50:53;13.20;99.90
3709;DHT22;1870;53.996;10.784;2023-05-16T07:53:20;13.40;99.90
3709;DHT22;1870;53.996;10.784;2023-05-16T07:55:46;13.50;99.90
3709;DHT22;1870;53.996;10.784;2023-05-16T07:58:12;13.30;99.90
3709;DHT22;1870;53.996;10.784;2023-05-16T08:00:37;13.20;99.90
3709;DHT22;1870;53.996;10.784;2023-05-16T08:03:03;13.40;99.90
3709;DHT22;1870;53.996;10.784;2023-05-16T08:05:28;13.40;99.90
3709;DHT22;1870;53.996;10.784;2023-05-16T08:07:54;13.50;99.90
3709;DHT22;1870;53.996;10.784;2023-05-16T08:10:21;13.40;99.90
3709;DHT22;1870;53.996;10.784;2023-05-16T08:12:48;13.40;99.90
3709;DHT22;1870;53.996;10.784;2023-05-16T08:15:13;13.50;99.90
3709;DHT22;1870;53.996;10.784;2023-05-16T08:17:39;13.70;99.90
3709;DHT22;1870;53.996;10.784;2023-05-16T08:20:06;13.80;99.90
3709;DHT22;1870;53.996;10.784;2023-05-16T08:22:31;13.90;99.90
3709;DHT22;1870;53.996;10.784;2023-05-16T08:24:58;13.90;99.90
3709;DHT22;1870;53.996;10.784;2023-05-16T08:27:25;14.10;99.90
3709;DHT22;1870;53.996;10.784;2023-05-16T08:29:51;13.90;99.90
3709;DHT22;1870;53.996;10.784;2023-05-16T08:32:16;13.80;99.90
3709;DHT22;1870;53.996;10.784;2023-05-16T08:34:42;13.60;99.90
3709;DHT22;1870;53.996;10.784;2023-05-16T08:37:08;13.70;99.90
3709;DHT22;1870;53.996;10.784;2023-05-16T08:39:34;13.80;99.90
3709;DHT22;1870;53.996;10.784;2023-05-16T08:42:00;13.80;99.90
3709;DHT22;1870;53.996;10.784;2023-05-16T08:44:27;13.80;99.90
3709;DHT22;1870;53.996;10.784;2023-05-16T08:46:53;13.90;99.90
3709;DHT22;1870;53.996;10.784;2023-05-16T08:49:20;14.20;99.90
3709;DHT22;1870;53.996;10.784;2023-05-16T08:51:47;14.30;99.90
3709;DHT22;1870;53.996;10.784;2023-05-16T08:54:14;14.30;99.90
3709;DHT22;1870;53.996;10.784;2023-05-16T08:56:41;14.10;99.90
3709;DHT22;1870;53.996;10.784;2023-05-16T08:59:07;13.90;99.90
3709;DHT22;1870;53.996;10.784;2023-05-16T09:01:34;13.90;99.90
3709;DHT22;1870;53.996;10.784;2023-05-16T09:04:00;13.90;99.90
3709;DHT22;1870;53.996;10.784;2023-05-16T09:06:27;14.00;99.90
3709;DHT22;1870;53.996;10.784;2023-05-16T09:08:53;13.70;99.90
3709;DHT22;1870;53.996;10.784;2023-05-16T09:11:19;13.50;99.90
3709;DHT22;1870;53.996;10.784;2023-05-16T09:13:46;13.70;99.90
3709;DHT22;1870;53.996;10.784;2023-05-16T09:16:17;13.90;99.90
3709;DHT22;1870;53.996;10.784;2023-05-16T09:18:45;14.00;99.90
3709;DHT22;1870;53.996;10.784;2023-05-16T09:21:11;13.90;99.90
3709;DHT22;1870;53.996;10.784;2023-05-16T09:23:37;13.70;99.90
3709;DHT22;1870;53.996;10.784;2023-05-16T09:26:07;13.70;99.90
3709;DHT22;1870;53.996;10.784;2023-05-16T09:28:33;13.90;99.90
3709;DHT22;1870;53.996;10.784;2023-05-16T09:30:59;14.00;99.90
3709;DHT22;1870;53.996;10.784;2023-05-16T09:33:28;14.00;99.90
3709;DHT22;1870;53.996;10.784;2023-05-16T09:35:58;14.20;99.90
3709;DHT22;1870;53.996;10.784;2023-05-16T09:38:25;14.60;99.90
3709;DHT22;1870;53.996;10.784;2023-05-16T09:40:52;14.90;99.90
3709;DHT22;1870;53.996;10.784;2023-05-16T09:43:29;15.10;99.90
3709;DHT22;1870;53.996;10.784;2023-05-16T09:45:58;15.10;99.90
3709;DHT22;1870;53.996;10.784;2023-05-16T09:48:25;14.90;99.90
3709;DHT22;1870;53.996;10.784;2023-05-16T09:50:53;14.60;99.90
3709;DHT22;1870;53.996;10.784;2023-05-16T09:53:32;14.60;99.90
3709;DHT22;1870;53.996;10.784;2023-05-16T09:56:04;14.50;99.90
3709;DHT22;1870;53.996;10.784;2023-05-16T09:58:33;14.60;99.90
3709;DHT22;1870;53.996;10.784;2023-05-16T10:00:59;14.80;99.90
3709;DHT22;1870;53.996;10.784;2023-05-16T10:03:26;15.00;99.90
3709;DHT22;1870;53.996;10.784;2023-05-16T10:05:55;15.10;99.90
3709;DHT22;1870;53.996;10.784;2023-05-16T10:08:22;14.90;99.90
3709;DHT22;1870;53.996;10.784;2023-05-16T10:10:53;14.70;99.90
3709;DHT22;1870;53.996;10.784;2023-05-16T10:13:21;14.50;99.90
3709;DHT22;1870;53.996;10.784;2023-05-16T10:15:50;14.60;99.90
3709;DHT22;1870;53.996;10.784;2023-05-16T10:18:20;14.50;99.90
3709;DHT22;1870;53.996;10.784;2023-05-16T10:20:47;14.50;99.90
3709;DHT22;1870;53.996;10.784;2023-05-16T10:23:16;14.70;99.90
3709;DHT22;1870;53.996;10.784;2023-05-16T10:25:44;14.60;99.90
3709;DHT22;1870;53.996;10.784;2023-05-16T10:28:10;14.40;99.90
3709;DHT22;1870;53.996;10.784;2023-05-16T10:30:40;14.40;99.90
3709;DHT22;1870;53.996;10.784;2023-05-16T10:33:06;14.50;99.90
3709;DHT22;1870;53.996;10.784;2023-05-16T10:35:33;14.50;99.90
3709;DHT22;1870;53.996;10.784;2023-05-16T10:37:59;14.60;99.90
3709;DHT22;1870;53.996;10.784;2023-05-16T10:40:27;14.80;99.90
3709;DHT22;1870;53.996;10.784;2023-05-16T10:43:01;15.10;99.90
3709;DHT22;1870;53.996;10.784;2023-05-16T10:45:28;15.40;99.90
3709;DHT22;1870;53.996;10.784;2023-05-16T10:48:02;15.50;99.90
3709;DHT22;1870;53.996;10.784;2023-05-16T10:50:42;15.70;99.90
3709;DHT22;1870;53.996;10.784;2023-05-16T10:53:33;15.70;99.90
3709;DHT22;1870;53.996;10.784;2023-05-16T11:01:26;14.60;99.90
3709;DHT22;1870;53.996;10.784;2023-05-16T11:09:17;14.40;99.90
3709;DHT22;1870;53.996;10.784;2023-05-16T11:11:59;14.40;99.90
3709;DHT22;1870;53.996;10.784;2023-05-16T11:19:48;14.90;99.90
3709;DHT22;1870;53.996;10.784;2023-05-16T11:27:21;14.90;99.90
3709;DHT22;1870;53.996;10.784;2023-05-16T11:29:48;15.00;99.90
3709;DHT22;1870;53.996;10.784;2023-05-16T11:32:13;15.30;99.90
3709;DHT22;1870;53.996;10.784;2023-05-16T11:34:43;15.30;99.90
3709;DHT22;1870;53.996;10.784;2023-05-16T11:37:10;15.10;99.90
3709;DHT22;1870;53.996;10.784;2023-05-16T11:39:39;15.00;99.90
3709;DHT22;1870;53.996;10.784;2023-05-16T11:42:05;15.10;99.90
3709;DHT22;1870;53.996;10.784;2023-05-16T11:44:31;15.20;99.90
3709;DHT22;1870;53.996;10.784;2023-05-16T11:46:57;15.30;99.90
3709;DHT22;1870;53.996;10.784;2023-05-16T11:49:22;15.00;99.90
3709;DHT22;1870;53.996;10.784;2023-05-16T11:51:48;15.10;99.90
3709;DHT22;1870;53.996;10.784;2023-05-16T11:54:17;15.10;99.90
3709;DHT22;1870;53.996;10.784;2023-05-16T11:56:44;15.30;99.90
3709;DHT22;1870;53.996;10.784;2023-05-16T11:59:10;15.30;99.90
3709;DHT22;1870;53.996;10.784;2023-05-16T12:01:37;15.10;99.90
3709;DHT22;1870;53.996;10.784;2023-05-16T12:04:10;14.90;99.90
3709;DHT22;1870;53.996;10.784;2023-05-16T12:06:37;14.90;99.90
3709;DHT22;1870;53.996;10.784;2023-05-16T12:09:04;14.90;99.90
3709;DHT22;1870;53.996;10.784;2023-05-16T12:11:38;14.80;99.90
3709;DHT22;1870;53.996;10.784;2023-05-16T12:14:06;14.60;99.90
3709;DHT22;1870;53.996;10.784;2023-05-16T12:16:32;14.20;99.90
3709;DHT22;1870;53.996;10.784;2023-05-16T12:18:59;14.20;99.90
3709;DHT22;1870;53.996;10.784;2023-05-16T12:21:26;14.10;99.90
3709;DHT22;1870;53.996;10.784;2023-05-16T12:23:55;14.10;99.90
3709;DHT22;1870;53.996;10.784;2023-05-16T12:26:29;14.30;99.90
3709;DHT22;1870;53.996;10.784;2023-05-16T12:28:59;14.50;99.90
3709;DHT22;1870;53.996;10.784;2023-05-16T12:31:28;14.60;99.90
3709;DHT22;1870;53.996;10.784;2023-05-16T12:33:57;14.90;99.90
3709;DHT22;1870;53.996;10.784;2023-05-16T12:36:24;15.00;99.90
3709;DHT22;1870;53.996;10.784;2023-05-16T12:38:52;15.10;99.90
3709;DHT22;1870;53.996;10.784;2023-05-16T12:41:21;15.10;99.90
3709;DHT22;1870;53.996;10.784;2023-05-16T12:43:48;14.90;99.90
3709;DHT22;1870;53.996;10.784;2023-05-16T12:46:14;14.80;99.90
3709;DHT22;1870;53.996;10.784;2023-05-16T12:48:41;14.80;99.90
3709;DHT22;1870;53.996;10.784;2023-05-16T12:51:15;14.70;99.90
3709;DHT22;1870;53.996;10.784;2023-05-16T12:53:46;14.70;99.90
3709;DHT22;1870;53.996;10.784;2023-05-16T12:56:13;14.50;99.90
3709;DHT22;1870;53.996;10.784;2023-05-16T12:58:40;14.40;99.90
3709;DHT22;1870;53.996;10.784;2023-05-16T13:01:06;14.40;99.90
3709;DHT22;1870;53.996;10.784;2023-05-16T13:03:32;14.60;99.90
3709;DHT22;1870;53.996;10.784;2023-05-16T13:05:58;14.30;99.90
3709;DHT22;1870;53.996;10.784;2023-05-16T13:08:24;14.30;99.90
3709;DHT22;1870;53.996;10.784;2023-05-16T13:10:50;14.40;99.90
3709;DHT22;1870;53.996;10.784;2023-05-16T13:13:16;14.30;99.90
3709;DHT22;1870;53.996;10.784;2023-05-16T13:15:44;14.10;99.90
3709;DHT22;1870;53.996;10.784;2023-05-16T13:18:09;13.90;99.90
3709;DHT22;1870;53.996;10.784;2023-05-16T13:20:35;13.90;99.90
3709;DHT22;1870;53.996;10.784;2023-05-16T13:23:01;13.90;99.90
3709;DHT22;1870;53.996;10.784;2023-05-16T13:25:27;13.60;99.90
3709;DHT22;1870;53.996;10.784;2023-05-16T13:27:52;13.40;99.90
3709;DHT22;1870;53.996;10.784;2023-05-16T13:30:18;13.10;99.90
3709;DHT22;1870;53.996;10.784;2023-05-16T13:32:43;13.00;99.90
3709;DHT22;1870;53.996;10.784;2023-05-16T13:35:10;13.10;99.90
3709;DHT22;1870;53.996;10.784;2023-05-16T13:37:36;13.10;99.90
3709;DHT22;1870;53.996;10.784;2023-05-16T13:40:02;13.10;99.90
3709;DHT22;1870;53.996;10.784;2023-05-16T13:42:29;13.20;99.90
3709;DHT22;1870;53.996;10.784;2023-05-16T13:44:55;13.70;99.90
3709;DHT22;1870;53.996;10.784;2023-05-16T13:47:23;14.10;99.90
3709;DHT22;1870;53.996;10.784;2023-05-16T13:49:49;14.70;99.90
3709;DHT22;1870;53.996;10.784;2023-05-16T13:52:15;15.00;99.90
3709;DHT22;1870;53.996;10.784;2023-05-16T13:54:40;15.50;99.90
3709;DHT22;1870;53.996;10.784;2023-05-16T13:57:06;15.80;99.90
3709;DHT22;1870;53.996;10.784;2023-05-16T13:59:32;15.70;99.90
3709;DHT22;1870;53.996;10.784;2023-05-16T14:01:58;15.60;99.90
3709;DHT22;1870;53.996;10.784;2023-05-16T14:04:23;15.70;99.90
3709;DHT22;1870;53.996;10.784;2023-05-16T14:06:50;15.70;99.90
3709;DHT22;1870;53.996;10.784;2023-05-16T14:09:16;15.30;99.90
3709;DHT22;1870;53.996;10.784;2023-05-16T14:11:43;15.10;99.90
3709;DHT22;1870;53.996;10.784;2023-05-16T14:14:08;15.00;99.90
3709;DHT22;1870;53.996;10.784;2023-05-16T14:16:34;14.90;99.90
3709;DHT22;1870;53.996;10.784;2023-05-16T14:18:59;14.60;99.90
3709;DHT22;1870;53.996;10.784;2023-05-16T14:21:25;14.50;99.90
3709;DHT22;1870;53.996;10.784;2023-05-16T14:23:51;14.30;99.90
3709;DHT22;1870;53.996;10.784;2023-05-16T14:26:16;14.10;99.90
3709;DHT22;1870;53.996;10.784;2023-05-16T14:28:47;14.00;99.90
3709;DHT22;1870;53.996;10.784;2023-05-16T14:31:12;13.70;99.90
3709;DHT22;1870;53.996;10.784;2023-05-16T14:33:38;13.20;99.90
3709;DHT22;1870;53.996;10.784;2023-05-16T14:36:06;12.90;99.90
3709;DHT22;1870;53.996;10.784;2023-05-16T14:38:32;12.70;99.90
3709;DHT22;1870;53.996;10.784;2023-05-16T14:40:57;12.50;99.90
3709;DHT22;1870;53.996;10.784;2023-05-16T14:43:23;12.50;99.90
3709;DHT22;1870;53.996;10.784;2023-05-16T14:45:49;12.70;99.90
3709;DHT22;1870;53.996;10.784;2023-05-16T14:48:14;12.70;99.90
3709;DHT22;1870;53.996;10.784;2023-05-16T14:50:41;12.80;99.90
3709;DHT22;1870;53.996;10.784;2023-05-16T14:53:07;12.80;99.90
3709;DHT22;1870;53.996;10.784;2023-05-16T14:55:33;12.80;99.90
3709;DHT22;1870;53.996;10.784;2023-05-16T14:57:58;13.10;99.90
3709;DHT22;1870;53.996;10.784;2023-05-16T15:00:24;13.50;99.90
3709;DHT22;1870;53.996;10.784;2023-05-16T15:02:51;13.90;99.90
3709;DHT22;1870;53.996;10.784;2023-05-16T15:05:17;14.30;99.90
3709;DHT22;1870;53.996;10.784;2023-05-16T15:07:43;14.40;99.90
3709;DHT22;1870;53.996;10.784;2023-05-16T15:10:10;14.80;99.90
3709;DHT22;1870;53.996;10.784;2023-05-16T15:12:36;14.80;99.90
3709;DHT22;1870;53.996;10.784;2023-05-16T15:15:05;14.50;99.90
3709;DHT22;1870;53.996;10.784;2023-05-16T15:17:31;14.10;99.90
3709;DHT22;1870;53.996;10.784;2023-05-16T15:19:57;13.80;99.90
3709;DHT22;1870;53.996;10.784;2023-05-16T15:22:23;13.70;99.90
3709;DHT22;1870;53.996;10.784;2023-05-16T15:24:50;13.60;99.90
3709;DHT22;1870;53.996;10.784;2023-05-16T15:27:16;13.40;99.90
3709;DHT22;1870;53.996;10.784;2023-05-16T15:29:42;13.30;99.90
3709;DHT22;1870;53.996;10.784;2023-05-16T15:32:07;13.40;99.90
3709;DHT22;1870;53.996;10.784;2023-05-16T15:34:34;13.10;99.90
3709;DHT22;1870;53.996;10.784;2023-05-16T15:37:00;13.20;99.90
3709;DHT22;1870;53.996;10.784;2023-05-16T15:39:26;13.40;99.90
3709;DHT22;1870;53.996;10.784;2023-05-16T15:41:54;13.70;99.90
3709;DHT22;1870;53.996;10.784;2023-05-16T15:44:20;14.20;99.90
3709;DHT22;1870;53.996;10.784;2023-05-16T15:46:46;14.70;99.90
3709;DHT22;1870;53.996;10.784;2023-05-16T15:49:12;15.10;99.90
3709;DHT22;1870;53.996;10.784;2023-05-16T15:51:37;15.30;99.90
3709;DHT22;1870;53.996;10.784;2023-05-16T15:54:03;15.00;99.90
3709;DHT22;1870;53.996;10.784;2023-05-16T15:56:29;14.60;99.90
3709;DHT22;1870;53.996;10.784;2023-05-16T15:58:55;14.30;99.90
3709;DHT22;1870;53.996;10.784;2023-05-16T16:01:20;13.80;99.90
3709;DHT22;1870;53.996;10.784;2023-05-16T16:03:46;13.70;99.90
3709;DHT22;1870;53.996;10.784;2023-05-16T16:06:12;13.30;99.90
3709;DHT22;1870;53.996;10.784;2023-05-16T16:08:38;13.20;99.90
3709;DHT22;1870;53.996;10.784;2023-05-16T16:11:03;12.90;99.90
3709;DHT22;1870;53.996;10.784;2023-05-16T16:13:29;12.70;99.90
3709;DHT22;1870;53.996;10.784;2023-05-16T16:15:55;12.70;99.90